Cartersville, Georgia
Current Conditions -  °F | °C
As of 6:53 AM on Sunday 25 Jan 2015 (Local Time) from KVPC Reporting Station
Clear Clear  
Wind Chill: 25°   Ceiling: Unl
Heat Index: 25°   Visibility: 10mi
Dew Point: 22°   Wind: 0mph
Humidity: 88%   Direction: NA
Pressure: 29.96"   Gusts: NA
Location:  34.17°N, 84.79°W
Report Text: KVPC 251153Z AUTO 00000KT 10SM CLR M04/M06 A2996 RMK AO2 SLP146 I1000 I6001 T10391056 11022 21039 53001
Loading
Personal Weather Stations






























Interactive Weather Map New forecast layout! Learn more

10-Day Weather Forecast

Advertisements
Track Severe Weather on mobile